createdAt,value
2022-10-11T00:00:55.910Z,7.30
2022-10-11T00:03:24.010Z,7.07
2022-10-11T00:05:53.784Z,3.70
2022-10-11T00:08:22.687Z,6.43
2022-10-11T00:10:58.622Z,5.37
2022-10-11T00:13:28.677Z,5.73
2022-10-11T00:15:57.315Z,4.37
2022-10-11T00:18:25.567Z,9.73
2022-10-11T00:21:03.755Z,5.63
2022-10-11T00:23:31.883Z,9.73
2022-10-11T00:26:00.645Z,4.87
2022-10-11T00:28:30.919Z,7.87
2022-10-11T00:30:59.046Z,5.57
2022-10-11T00:33:27.151Z,5.73
2022-10-11T00:35:55.196Z,4.70
2022-10-11T00:38:23.402Z,8.23
2022-10-11T00:40:51.505Z,4.40
2022-10-11T00:43:22.963Z,6.77
2022-10-11T00:46:27.106Z,8.60
2022-10-11T00:49:02.075Z,5.80
2022-10-11T00:51:42.265Z,4.30
2022-10-11T00:54:16.262Z,4.70
2022-10-11T00:56:49.038Z,5.27
2022-10-11T00:59:24.177Z,3.70
2022-10-11T01:01:54.053Z,6.37
2022-10-11T01:04:22.395Z,4.23
2022-10-11T01:06:51.593Z,7.80
2022-10-11T01:09:20.971Z,6.57
2022-10-11T01:11:51.575Z,4.87
2022-10-11T01:15:05.261Z,8.03
2022-10-11T01:17:47.390Z,3.67
2022-10-11T01:20:38.862Z,3.17
2022-10-11T01:23:56.631Z,7.57
2022-10-11T01:27:06.075Z,7.33
2022-10-11T01:29:48.470Z,5.70
2022-10-11T01:32:22.589Z,8.17
2022-10-11T01:34:59.363Z,6.37
2022-10-11T01:37:33.621Z,7.23
2022-10-11T01:40:08.696Z,10.87
2022-10-11T01:42:39.808Z,6.60
2022-10-11T01:45:13.709Z,6.43
2022-10-11T01:47:45.662Z,7.13
2022-10-11T01:50:41.050Z,8.13
2022-10-11T01:53:59.816Z,6.13
2022-10-11T01:56:47.743Z,6.63
2022-10-11T01:59:34.976Z,6.73
2022-10-11T02:02:19.574Z,9.33
2022-10-11T02:04:56.296Z,10.20
2022-10-11T02:07:32.297Z,9.83
2022-10-11T02:10:08.163Z,7.33
2022-10-11T02:12:41.994Z,13.00
2022-10-11T02:15:14.470Z,10.03
2022-10-11T02:17:48.779Z,12.00
2022-10-11T02:20:22.602Z,8.43
2022-10-11T02:22:57.277Z,9.63
2022-10-11T02:25:28.165Z,8.20
2022-10-11T02:28:00.388Z,11.80
2022-10-11T02:30:29.846Z,12.53
2022-10-11T02:33:00.041Z,10.50
2022-10-11T02:35:35.910Z,11.60
2022-10-11T02:38:13.342Z,12.37
2022-10-11T02:40:48.398Z,16.30
2022-10-11T02:43:23.957Z,14.60
2022-10-11T02:45:56.414Z,20.97
2022-10-11T02:48:27.414Z,19.27
2022-10-11T02:50:57.881Z,18.97
2022-10-11T02:53:27.409Z,18.67
2022-10-11T02:55:56.965Z,18.30
2022-10-11T02:58:25.654Z,16.97
2022-10-11T03:00:53.786Z,17.33
2022-10-11T03:03:21.907Z,15.90
2022-10-11T03:05:49.948Z,13.43
2022-10-11T03:08:19.397Z,15.70
2022-10-11T03:10:47.612Z,12.73
2022-10-11T03:13:18.396Z,19.70
2022-10-11T03:16:02.259Z,17.70
2022-10-11T03:18:31.729Z,19.17
2022-10-11T03:20:59.818Z,12.77
2022-10-11T03:23:29.263Z,14.77
2022-10-11T03:25:57.369Z,15.00
2022-10-11T03:28:25.550Z,15.10
2022-10-11T03:30:54.207Z,17.90
2022-10-11T03:33:22.345Z,16.37
2022-10-11T03:35:50.687Z,15.90
2022-10-11T03:38:22.216Z,12.70
2022-10-11T03:40:51.819Z,13.73
2022-10-11T03:43:19.950Z,11.87
2022-10-11T03:45:48.096Z,15.53
2022-10-11T03:48:16.368Z,14.90
2022-10-11T03:50:44.449Z,17.00
2022-10-11T03:53:12.614Z,12.90
2022-10-11T03:55:41.342Z,16.80
2022-10-11T03:58:10.772Z,14.70
2022-10-11T04:00:40.050Z,14.60
2022-10-11T04:03:08.073Z,18.10
2022-10-11T04:05:36.170Z,16.80
2022-10-11T04:08:07.368Z,18.80
2022-10-11T04:10:39.964Z,18.23
2022-10-11T04:13:08.393Z,20.60
2022-10-11T04:15:39.416Z,18.53
2022-10-11T04:18:08.216Z,19.13
2022-10-11T04:20:36.814Z,17.47
2022-10-11T04:23:04.857Z,19.23
2022-10-11T04:25:33.087Z,20.57
2022-10-11T04:28:01.344Z,16.10
2022-10-11T04:30:29.426Z,18.87
2022-10-11T04:32:59.237Z,19.37
2022-10-11T04:35:27.315Z,19.60
2022-10-11T04:37:55.361Z,15.63
2022-10-11T04:40:23.459Z,18.67
2022-10-11T04:42:53.601Z,18.67
2022-10-11T04:45:21.914Z,21.67
2022-10-11T04:47:50.120Z,16.43
2022-10-11T04:50:20.243Z,22.50
2022-10-11T04:52:48.623Z,16.70
2022-10-11T04:55:16.789Z,17.13
2022-10-11T04:57:44.854Z,18.53
2022-10-11T05:00:14.492Z,19.73
2022-10-11T05:02:42.564Z,18.07
2022-10-11T05:05:11.044Z,18.57
2022-10-11T05:07:40.486Z,15.60
2022-10-11T05:10:10.319Z,16.33
2022-10-11T05:12:38.406Z,19.67
2022-10-11T05:15:08.694Z,21.40
2022-10-11T05:17:36.866Z,17.17
2022-10-11T05:20:05.840Z,19.57
2022-10-11T05:22:33.938Z,23.53
2022-10-11T05:25:03.301Z,19.33
2022-10-11T05:27:31.334Z,20.43
2022-10-11T05:29:59.410Z,17.43
2022-10-11T05:32:28.172Z,14.70
2022-10-11T05:34:56.322Z,25.57
2022-10-11T05:37:24.673Z,19.60
2022-10-11T05:39:53.119Z,25.40
2022-10-11T05:42:22.534Z,22.43
2022-10-11T05:44:50.592Z,22.13
2022-10-11T05:47:18.638Z,20.90
2022-10-11T05:49:46.677Z,22.03
2022-10-11T05:52:19.711Z,19.57
2022-10-11T05:54:48.110Z,23.33
2022-10-11T05:57:16.333Z,21.93
2022-10-11T05:59:45.774Z,23.40
2022-10-11T06:02:14.544Z,21.33
2022-10-11T06:04:42.657Z,20.90
2022-10-11T06:07:10.677Z,24.80
2022-10-11T06:09:39.682Z,23.23
2022-10-11T06:12:08.135Z,21.53
2022-10-11T06:14:37.061Z,15.43
2022-10-11T06:17:06.399Z,20.17
2022-10-11T06:19:34.470Z,18.63
2022-10-11T06:22:02.560Z,23.20
2022-10-11T06:24:30.605Z,19.30
2022-10-11T06:26:58.645Z,22.60
2022-10-11T06:29:26.789Z,22.50
2022-10-11T06:31:54.798Z,24.57
2022-10-11T06:34:24.784Z,21.07
2022-10-11T06:36:52.937Z,27.13
2022-10-11T06:39:21.003Z,20.53
2022-10-11T06:41:49.053Z,20.20
2022-10-11T06:44:17.663Z,20.43
2022-10-11T06:46:45.752Z,21.90
2022-10-11T06:49:13.865Z,22.67
2022-10-11T06:51:43.291Z,19.03
2022-10-11T06:54:11.555Z,21.77
2022-10-11T06:56:40.736Z,20.17
2022-10-11T06:59:09.808Z,17.83
2022-10-11T07:01:37.987Z,27.67
2022-10-11T07:04:06.424Z,18.73
2022-10-11T07:06:38.478Z,19.30
2022-10-11T07:09:08.970Z,21.93
2022-10-11T07:11:39.132Z,18.97
2022-10-11T07:14:11.624Z,19.83
2022-10-11T07:16:44.325Z,16.83
2022-10-11T07:19:12.405Z,19.03
2022-10-11T07:21:40.406Z,21.27
2022-10-11T07:24:10.115Z,20.37
2022-10-11T07:26:39.843Z,23.83
2022-10-11T07:29:09.275Z,22.47
2022-10-11T07:31:39.808Z,21.00
2022-10-11T07:34:09.608Z,18.33
2022-10-11T07:36:37.804Z,22.23
2022-10-11T07:39:07.844Z,23.33
2022-10-11T07:41:43.175Z,20.33
2022-10-11T07:44:13.801Z,20.50
2022-10-11T07:46:41.887Z,15.43
2022-10-11T07:49:09.915Z,25.37
2022-10-11T07:51:37.940Z,23.43
2022-10-11T07:54:07.411Z,18.97
2022-10-11T07:56:39.895Z,24.00
2022-10-11T07:59:08.118Z,27.83
2022-10-11T08:01:36.210Z,24.67
2022-10-11T08:04:04.783Z,20.70
2022-10-11T08:06:33.248Z,20.53
2022-10-11T08:09:02.099Z,26.20
2022-10-11T08:11:32.455Z,20.57
2022-10-11T08:14:04.377Z,20.97
2022-10-11T08:16:32.549Z,24.53
2022-10-11T08:19:01.372Z,21.87
2022-10-11T08:21:29.617Z,24.83
2022-10-11T08:23:58.103Z,18.57
2022-10-11T08:26:26.666Z,23.23
2022-10-11T08:28:54.797Z,26.50
2022-10-11T08:31:24.253Z,16.60
2022-10-11T08:33:52.281Z,19.23
2022-10-11T08:36:20.363Z,19.73
2022-10-11T08:38:48.419Z,20.87
2022-10-11T08:41:28.808Z,19.83
2022-10-11T08:44:07.393Z,19.80
2022-10-11T08:46:38.721Z,22.73
2022-10-11T08:49:09.985Z,22.43
2022-10-11T08:51:44.245Z,20.73
2022-10-11T08:54:22.054Z,21.77
2022-10-11T08:56:51.246Z,20.57
2022-10-11T08:59:32.079Z,19.90
2022-10-11T09:02:17.472Z,18.97
2022-10-11T09:04:51.682Z,27.77
2022-10-11T09:07:29.349Z,20.10
2022-10-11T09:10:20.569Z,19.80
2022-10-11T09:12:59.374Z,23.50
2022-10-11T09:15:37.560Z,18.03
2022-10-11T09:18:39.193Z,24.10
2022-10-11T09:21:29.386Z,19.97
2022-10-11T09:24:30.458Z,18.87
2022-10-11T09:27:02.061Z,22.80
2022-10-11T09:29:51.905Z,19.90
2022-10-11T09:32:22.495Z,25.57
2022-10-11T09:35:00.529Z,21.70
2022-10-11T09:37:36.417Z,21.27
2022-10-11T09:40:19.467Z,22.33
2022-10-11T09:42:47.553Z,22.80
2022-10-11T09:45:20.024Z,21.83
2022-10-11T09:47:49.652Z,19.17
2022-10-11T09:50:23.277Z,17.03
2022-10-11T09:52:52.931Z,21.27
2022-10-11T09:55:38.718Z,19.07
2022-10-11T09:58:26.100Z,24.40
2022-10-11T10:01:05.113Z,19.07
2022-10-11T10:03:37.393Z,22.90
2022-10-11T10:06:11.182Z,24.67
2022-10-11T10:08:39.269Z,29.97
2022-10-11T10:11:09.425Z,23.57
2022-10-11T10:13:46.265Z,25.87
2022-10-11T10:16:24.851Z,23.23
2022-10-11T10:18:56.330Z,23.03
2022-10-11T10:21:32.316Z,18.00
2022-10-11T10:24:18.126Z,20.40
2022-10-11T10:27:08.937Z,21.00
2022-10-11T10:29:37.302Z,24.63
2022-10-11T10:32:14.968Z,20.90
2022-10-11T10:34:56.522Z,24.20
2022-10-11T10:37:30.854Z,24.40
2022-10-11T10:40:07.133Z,24.00
2022-10-11T10:42:35.371Z,19.87
2022-10-11T10:45:07.256Z,24.00
2022-10-11T10:47:59.185Z,16.43
2022-10-11T10:50:33.565Z,18.17
2022-10-11T10:53:20.160Z,16.70
2022-10-11T10:55:53.583Z,18.33
2022-10-11T10:58:43.714Z,18.77
2022-10-11T11:01:19.656Z,19.60
2022-10-11T11:03:56.757Z,21.53
2022-10-11T11:06:36.903Z,29.10
2022-10-11T11:09:23.325Z,17.70
2022-10-11T11:12:10.995Z,18.70
2022-10-11T11:14:53.529Z,18.63
2022-10-11T11:17:33.613Z,18.00
2022-10-11T11:20:17.804Z,19.57
2022-10-11T11:22:57.015Z,17.07
2022-10-11T11:25:44.527Z,16.63
2022-10-11T11:28:51.913Z,17.33
2022-10-11T11:31:43.833Z,18.07
2022-10-11T11:34:22.602Z,24.90
2022-10-11T11:36:56.258Z,18.77
2022-10-11T11:39:31.306Z,20.93
2022-10-11T11:42:08.725Z,18.37
2022-10-11T11:44:42.427Z,21.13
2022-10-11T11:47:17.832Z,14.10
2022-10-11T11:49:50.268Z,16.30
2022-10-11T11:52:27.580Z,16.97
2022-10-11T11:55:05.919Z,17.10
2022-10-11T11:57:53.119Z,15.40
2022-10-11T12:00:24.254Z,19.87
2022-10-11T12:02:57.890Z,14.43
2022-10-11T12:05:29.779Z,16.57
2022-10-11T12:08:01.929Z,13.07
2022-10-11T12:10:37.053Z,16.77
2022-10-11T12:13:19.963Z,16.83
2022-10-11T12:16:11.751Z,12.50
2022-10-11T12:19:00.770Z,20.53
2022-10-11T12:21:33.841Z,14.87
2022-10-11T12:24:11.041Z,18.10
2022-10-11T12:26:47.353Z,11.03
2022-10-11T12:29:48.944Z,14.37
2022-10-11T12:32:51.843Z,15.70
2022-10-11T12:35:57.506Z,15.53
2022-10-11T12:38:28.514Z,14.57
2022-10-11T12:41:00.482Z,13.07
2022-10-11T12:44:14.125Z,16.10
2022-10-11T12:49:56.930Z,14.87
2022-10-11T12:52:35.955Z,14.77
2022-10-11T12:55:31.062Z,13.87
2022-10-11T12:58:30.666Z,18.23
2022-10-11T13:01:29.004Z,15.60
2022-10-11T13:04:05.636Z,13.23
2022-10-11T13:06:39.145Z,18.00
2022-10-11T13:09:19.337Z,15.70
2022-10-11T13:11:51.600Z,13.37
2022-10-11T13:14:22.905Z,12.70
2022-10-11T13:17:04.877Z,13.23
2022-10-11T13:19:35.465Z,16.23
2022-10-11T13:22:18.918Z,16.63
2022-10-11T13:24:47.132Z,13.50
2022-10-11T13:27:22.053Z,11.27
2022-10-11T13:29:53.055Z,13.53
2022-10-11T13:32:24.316Z,20.17
2022-10-11T13:34:57.648Z,10.20
2022-10-11T13:37:29.904Z,10.80
2022-10-11T13:39:59.928Z,12.70
2022-10-11T13:42:32.494Z,13.77
2022-10-11T13:45:02.142Z,12.00
2022-10-11T13:47:32.789Z,12.47
2022-10-11T13:50:12.256Z,14.03
2022-10-11T13:52:56.915Z,14.93
2022-10-11T13:55:32.553Z,12.70
2022-10-11T13:58:14.945Z,13.83
2022-10-11T14:00:55.883Z,14.30
2022-10-11T14:03:34.914Z,13.57
2022-10-11T14:06:40.377Z,17.40
2022-10-11T14:09:22.400Z,14.37
2022-10-11T14:11:51.416Z,12.97
2022-10-11T14:14:42.812Z,12.60
2022-10-11T14:17:17.334Z,15.20
2022-10-11T14:19:47.971Z,17.00
2022-10-11T14:22:18.468Z,15.43
2022-10-11T14:24:49.843Z,12.37
2022-10-11T14:27:25.510Z,11.47
2022-10-11T14:30:20.330Z,12.87
2022-10-11T14:32:43.959Z,12.93
2022-10-11T14:35:17.796Z,12.50
2022-10-11T14:37:47.524Z,16.00
2022-10-11T14:40:21.115Z,13.60
2022-10-11T14:42:49.244Z,15.33
2022-10-11T14:45:18.587Z,11.67
2022-10-11T14:47:47.623Z,12.63
2022-10-11T14:50:32.486Z,12.23
2022-10-11T14:53:01.323Z,14.00
2022-10-11T14:55:31.361Z,13.10
2022-10-11T14:57:59.679Z,12.67
2022-10-11T15:00:30.387Z,12.57
2022-10-11T15:02:59.118Z,16.73
2022-10-11T15:05:33.882Z,12.17
2022-10-11T15:08:02.872Z,15.40
2022-10-11T15:10:36.946Z,11.87
2022-10-11T15:13:07.655Z,10.87
2022-10-11T15:15:37.559Z,15.67
2022-10-11T15:18:08.238Z,15.93
2022-10-11T15:20:40.045Z,9.70
2022-10-11T15:23:10.810Z,11.77
2022-10-11T15:25:42.645Z,12.27
2022-10-11T15:28:23.419Z,14.07
2022-10-11T15:30:53.006Z,12.40
2022-10-11T15:33:21.164Z,14.23
2022-10-11T15:35:49.433Z,14.63
2022-10-11T15:38:19.848Z,13.07
2022-10-11T15:40:50.767Z,14.77
2022-10-11T15:43:24.413Z,14.07
2022-10-11T15:45:53.564Z,16.43
2022-10-11T15:48:26.210Z,15.37
2022-10-11T15:50:54.977Z,12.73
2022-10-11T15:53:28.474Z,13.20
2022-10-11T15:56:00.652Z,15.30
2022-10-11T15:58:32.555Z,14.83
2022-10-11T16:01:05.335Z,12.97
2022-10-11T16:03:35.559Z,14.57
2022-10-11T16:06:05.825Z,13.60
2022-10-11T16:08:35.053Z,12.27
2022-10-11T16:11:07.176Z,14.23
2022-10-11T16:13:36.721Z,12.37
2022-10-11T16:16:07.686Z,11.47
2022-10-11T16:18:36.397Z,15.50
2022-10-11T16:21:10.205Z,15.37
2022-10-11T16:23:39.223Z,13.53
2022-10-11T16:26:14.943Z,12.40
2022-10-11T16:28:43.181Z,14.27
2022-10-11T16:31:16.718Z,17.80
2022-10-11T16:33:46.552Z,12.20
2022-10-11T16:36:34.436Z,13.77
2022-10-11T16:39:07.065Z,14.50
2022-10-11T16:41:36.764Z,14.90
2022-10-11T16:44:05.377Z,13.07
2022-10-11T16:46:33.951Z,14.03
2022-10-11T16:49:02.076Z,12.43
2022-10-11T16:51:30.178Z,14.70
2022-10-11T16:53:58.586Z,12.13
2022-10-11T16:56:27.650Z,11.90
2022-10-11T16:58:57.173Z,12.30
2022-10-11T17:01:25.652Z,14.13
2022-10-11T17:03:55.620Z,12.23
2022-10-11T17:06:24.869Z,11.63
2022-10-11T17:08:53.183Z,15.97
2022-10-11T17:11:22.190Z,12.80
2022-10-11T17:13:53.270Z,14.83
2022-10-11T17:16:23.502Z,19.47
2022-10-11T17:18:51.650Z,13.13
2022-10-11T17:21:22.537Z,15.17
2022-10-11T17:23:50.734Z,14.40
2022-10-11T17:26:21.849Z,10.97
2022-10-11T17:28:50.132Z,13.57
2022-10-11T17:31:18.665Z,13.03
2022-10-11T17:33:48.258Z,14.53
2022-10-11T17:36:22.738Z,14.20
2022-10-11T17:38:52.607Z,14.33
2022-10-11T17:41:21.567Z,12.13
2022-10-11T17:43:49.610Z,15.20
2022-10-11T17:46:19.141Z,14.70
2022-10-11T17:48:48.810Z,14.63
2022-10-11T17:51:19.908Z,16.77
2022-10-11T17:53:50.754Z,15.70
2022-10-11T17:56:26.783Z,10.90
2022-10-11T17:58:59.001Z,17.63
2022-10-11T18:01:30.408Z,14.93
2022-10-11T18:04:02.161Z,12.90
2022-10-11T18:06:33.625Z,15.40
2022-10-11T18:09:03.680Z,11.83
2022-10-11T18:11:32.382Z,13.13
2022-10-11T18:14:00.455Z,13.37
2022-10-11T18:16:31.353Z,18.53
2022-10-11T18:19:03.076Z,17.23
2022-10-11T18:21:34.743Z,13.77
2022-10-11T18:24:06.584Z,17.90
2022-10-11T18:26:35.251Z,13.80
2022-10-11T18:29:03.782Z,14.43
2022-10-11T18:31:35.000Z,15.97
2022-10-11T18:34:06.208Z,17.47
2022-10-11T18:36:34.410Z,13.70
2022-10-11T18:39:05.752Z,12.03
2022-10-11T18:41:35.650Z,13.43
2022-10-11T18:44:06.978Z,14.67
2022-10-11T18:46:36.682Z,15.13
2022-10-11T18:49:06.376Z,13.33
2022-10-11T18:51:37.589Z,14.40
2022-10-11T18:54:08.576Z,12.77
2022-10-11T18:56:37.636Z,14.80
2022-10-11T18:59:07.747Z,14.40
2022-10-11T19:01:39.105Z,14.63
2022-10-11T19:04:11.890Z,14.37
2022-10-11T19:06:44.741Z,14.17
2022-10-11T19:09:15.145Z,14.00
2022-10-11T19:11:43.355Z,13.37
2022-10-11T19:14:14.722Z,12.10
2022-10-11T19:16:49.024Z,17.97
2022-10-11T19:19:20.521Z,14.00
2022-10-11T19:21:49.467Z,13.27
2022-10-11T19:24:18.373Z,15.13
2022-10-11T19:26:47.292Z,16.43
2022-10-11T19:29:18.859Z,15.20
2022-10-11T19:31:50.500Z,14.07
2022-10-11T19:34:20.846Z,16.20
2022-10-11T19:36:50.722Z,14.90
2022-10-11T19:39:21.014Z,17.63
2022-10-11T19:41:49.476Z,14.90
2022-10-11T19:44:18.298Z,14.40
2022-10-11T19:46:53.855Z,15.17
2022-10-11T19:49:25.789Z,16.33
2022-10-11T19:51:55.260Z,15.20
2022-10-11T19:54:24.330Z,14.80
2022-10-11T19:56:52.802Z,13.97
2022-10-11T19:59:22.144Z,15.33
2022-10-11T20:01:53.149Z,17.10
2022-10-11T20:04:50.631Z,17.30
2022-10-11T20:07:11.619Z,18.67
2022-10-11T20:09:39.696Z,15.97
2022-10-11T20:12:09.432Z,12.90
2022-10-11T20:14:37.483Z,16.03
2022-10-11T20:17:05.568Z,16.03
2022-10-11T20:19:34.985Z,13.03
2022-10-11T20:22:03.172Z,19.60
2022-10-11T20:24:33.565Z,12.40
2022-10-11T20:27:04.119Z,17.53
2022-10-11T20:29:32.566Z,16.57
2022-10-11T20:32:00.680Z,15.00
2022-10-11T20:34:29.148Z,16.07
2022-10-11T20:36:58.551Z,15.17
2022-10-11T20:39:26.884Z,17.03
2022-10-11T20:41:54.954Z,13.70
2022-10-11T20:44:23.148Z,16.73
2022-10-11T20:46:51.304Z,16.27
2022-10-11T20:49:20.607Z,15.57
2022-10-11T20:51:48.858Z,12.80
2022-10-11T20:54:18.485Z,14.13
2022-10-11T20:56:46.764Z,15.20
2022-10-11T20:59:14.858Z,16.20
2022-10-11T21:01:43.977Z,15.70
2022-10-11T21:04:19.584Z,17.37
2022-10-11T21:06:48.360Z,16.03
2022-10-11T21:09:19.025Z,16.07
2022-10-11T21:11:47.105Z,17.20
2022-10-11T21:14:15.365Z,18.07
2022-10-11T21:16:43.780Z,12.90
2022-10-11T21:19:16.082Z,18.70
2022-10-11T21:21:50.987Z,21.13
2022-10-11T21:24:23.147Z,15.43
2022-10-11T21:26:51.298Z,15.03
2022-10-11T21:29:19.454Z,16.77
2022-10-11T21:31:47.487Z,14.57
2022-10-11T21:34:15.669Z,17.73
2022-10-11T21:36:44.233Z,15.43
2022-10-11T21:39:12.306Z,17.80
2022-10-11T21:41:42.944Z,17.47
2022-10-11T21:44:11.202Z,9.90
2022-10-11T21:47:05.308Z,15.83
2022-10-11T21:49:27.439Z,16.90
2022-10-11T21:51:56.209Z,14.17
2022-10-11T21:54:24.296Z,12.93
2022-10-11T21:56:53.919Z,17.20
2022-10-11T21:59:22.001Z,11.27
2022-10-11T22:01:50.183Z,19.97
2022-10-11T22:04:18.245Z,15.57
2022-10-11T22:06:46.278Z,14.80
2022-10-11T22:09:14.365Z,14.30
2022-10-11T22:11:42.405Z,16.00
2022-10-11T22:14:11.997Z,16.67
2022-10-11T22:16:40.187Z,16.73
2022-10-11T22:19:08.402Z,17.67
2022-10-11T22:21:39.088Z,18.03
2022-10-11T22:24:09.484Z,14.23
2022-10-11T22:26:37.766Z,18.97
2022-10-11T22:29:05.974Z,16.33
2022-10-11T22:31:36.774Z,17.07
2022-10-11T22:34:05.146Z,18.50
2022-10-11T22:36:33.711Z,18.53
2022-10-11T22:39:02.869Z,14.17
2022-10-11T22:41:30.962Z,14.73
2022-10-11T22:43:58.984Z,14.97
2022-10-11T22:46:27.056Z,14.87
2022-10-11T22:48:56.450Z,16.20
2022-10-11T22:51:24.645Z,16.30
2022-10-11T22:53:52.845Z,15.20
2022-10-11T22:56:20.936Z,17.87
2022-10-11T22:58:48.952Z,17.30
2022-10-11T23:01:17.556Z,15.07
2022-10-11T23:03:50.036Z,17.13
2022-10-11T23:06:19.922Z,17.70
2022-10-11T23:08:47.942Z,14.60
2022-10-11T23:11:16.558Z,16.53
2022-10-11T23:13:44.709Z,17.03
2022-10-11T23:16:14.298Z,14.20
2022-10-11T23:18:42.597Z,16.10
2022-10-11T23:21:10.796Z,16.10
2022-10-11T23:23:40.525Z,14.40
2022-10-11T23:26:11.591Z,17.47
2022-10-11T23:28:40.293Z,16.43
2022-10-11T23:31:10.694Z,14.97
2022-10-11T23:33:39.494Z,13.87
2022-10-11T23:36:16.578Z,13.63
2022-10-11T23:38:46.566Z,14.40
2022-10-11T23:41:16.022Z,13.57
2022-10-11T23:43:44.104Z,14.17
2022-10-11T23:46:12.151Z,15.73
2022-10-11T23:48:40.383Z,12.03
2022-10-11T23:51:09.094Z,15.40
2022-10-11T23:53:37.695Z,19.10
2022-10-11T23:56:09.333Z,14.20
2022-10-11T23:58:37.446Z,16.13
